ASN logo
Last updated: 19 January 2020
Statuts:Enquête Préliminaire
Date:jeudi 20 décembre 2018
Heure:12:11
Type/Sous-type:Silhouette image of generic C560 model; specific model in this crash may look slightly different
Cessna 560 Citation V
Compagnie:Chen Aircrafts LLC
Immatriculation: N188CW
Numéro de série: 560-0148
Année de Fabrication: 1991
Moteurs: 2 Pratt & Whitney Canada JT15D
Equipage:victimes: 1 / à bord: 1
Passagers:victimes: 3 / à bord: 3
Total:victimes: 4 / à bord: 4
Dégats de l'appareil: Détruit
Conséquences: Written off (damaged beyond repair)
Lieu de l'accident:2 km (1.3 milles) NE of Atlanta-Fulton County Airport, GA (FTY) (   Etats-Unis d'Amérique)
Phase de vol: En montée initiale (ICL)
Nature:Privé
Aéroport de départ:Atlanta-Fulton County Airport, GA (FTY/KFTY), Etats-Unis d'Amérique
Aéroport de destination:Millington-Memphis Airport, TN (NQA/KNQA), Etats-Unis d'Amérique
Détails:
A Cessna 560 Citation V corporate jet, N188CW, impacted English Park, Atlanta, Georgia shortly after takeoff from Fulton County Airport-Brown Field (KFTY). The airplane was destroyed during the accident sequence and a post-impact fire and the four occupants onboard received fatal injuries.
An NTSB review of preliminary radar data provided by the Federal Aviation Administration (FAA) revealed that after departing from runway 8, the airplane turned left toward the north climbing to about 3,225 ft msl (2,385 ft agl), then made a descending right 180-degree right turn to the south before radar contact was lost at an altitude of about 1,175 feet msl (335 ft agl).
A video obtained from a security camera positioned on top of a building, located about a half mile from the accident site, captured the airplane in a descending left turn prior to rolling inverted until it was lost from view behind a tree line.

Accident investigation:
Investigating agency: NTSB
Status: Investigation ongoing
Accident number: ERA19FA071

Sources:
» NTSB
» AJC.com
» Flightaware

METAR Weather report:
16:53 UTC / 11:53 local time:
KFTY 201653Z 06010KT 4SM -RA BR BKN008 OVC014 08/08 A2957 RMK AO2 PRESFR SLP012 P0013 T00830083

17:16 UTC / 12:16 local time:
KFTY 201716Z 05010KT 7SM -RA OVC006 08/08 A2952 RMK AO2 PRESFR P0002 T00830083


Photos

Add your photo of this accident or aircraft

Video, social media

Plan
Ce plan montre l'aéroport de départ ainsi que la supposée destination du vol. La ligne fixe reliant les deux aéroports n'est pas le plan de vol exact.
La distance entre Atlanta-Fulton County Airport, GA et Millington-Memphis Airport, TN est de 517 km (323 miles).
Accident location: Approximate; accuracy within a few kilometers.

Les informations ci-dessus ne représentent pas l'opinion de la 'Flight Safety Foundation' ou de 'Aviation Safety Network' sur les causes de l'accident. Ces informations prélimimaires sont basées sur les faits tel qu'ils sont connus à ce jour.
languages: languages

Share